createdAt,value
2023-05-22T00:01:56.771Z,2.63
2023-05-22T00:04:24.143Z,3.00
2023-05-22T00:06:51.365Z,3.50
2023-05-22T00:09:18.495Z,3.13
2023-05-22T00:11:45.697Z,3.38
2023-05-22T00:14:16.158Z,3.30
2023-05-22T00:16:43.339Z,3.15
2023-05-22T00:19:13.407Z,3.08
2023-05-22T00:21:40.880Z,3.33
2023-05-22T00:24:08.372Z,3.05
2023-05-22T00:26:35.754Z,3.67
2023-05-22T00:29:03.620Z,3.08
2023-05-22T00:31:30.769Z,3.35
2023-05-22T00:33:59.148Z,3.10
2023-05-22T00:36:26.268Z,3.22
2023-05-22T00:38:53.396Z,3.00
2023-05-22T00:41:22.249Z,3.40
2023-05-22T00:43:50.985Z,3.03
2023-05-22T00:46:21.505Z,3.85
2023-05-22T00:48:49.232Z,3.15
2023-05-22T00:51:16.480Z,3.08
2023-05-22T00:53:44.225Z,2.95
2023-05-22T00:56:12.338Z,3.10
2023-05-22T00:58:39.556Z,3.15
2023-05-22T01:01:09.625Z,3.60
2023-05-22T01:03:46.635Z,2.97
2023-05-22T01:06:15.041Z,3.38
2023-05-22T01:08:42.806Z,2.90
2023-05-22T01:11:25.002Z,2.90
2023-05-22T01:14:01.059Z,3.03
2023-05-22T01:16:46.710Z,3.30
2023-05-22T01:19:47.595Z,2.60
2023-05-22T01:23:03.001Z,3.35
2023-05-22T01:25:45.434Z,3.15
2023-05-22T01:28:45.950Z,2.85
2023-05-22T01:31:18.321Z,3.13
2023-05-22T01:33:51.891Z,3.13
2023-05-22T01:36:22.513Z,2.97
2023-05-22T01:38:52.718Z,3.03
2023-05-22T01:41:21.491Z,3.05
2023-05-22T01:43:48.782Z,3.08
2023-05-22T01:46:16.049Z,3.10
2023-05-22T01:48:43.188Z,3.20
2023-05-22T01:51:23.980Z,2.80
2023-05-22T01:54:06.188Z,3.60
2023-05-22T01:56:40.748Z,2.90
2023-05-22T01:59:13.753Z,3.27
2023-05-22T02:01:41.773Z,3.30
2023-05-22T02:04:10.329Z,3.60
2023-05-22T02:06:38.541Z,2.92
2023-05-22T02:09:06.277Z,2.67
2023-05-22T02:11:34.680Z,3.63
2023-05-22T02:14:02.207Z,3.10
2023-05-22T02:16:30.366Z,3.03
2023-05-22T02:19:05.845Z,3.10
2023-05-22T02:21:36.359Z,2.80
2023-05-22T02:24:03.762Z,3.08
2023-05-22T02:26:31.035Z,3.38
2023-05-22T02:28:58.871Z,3.20
2023-05-22T02:31:26.393Z,3.60
2023-05-22T02:33:53.856Z,3.17
2023-05-22T02:36:21.067Z,3.65
2023-05-22T02:38:48.605Z,3.92
2023-05-22T02:41:15.806Z,3.20
2023-05-22T02:43:43.042Z,3.30
2023-05-22T02:46:10.263Z,3.83
2023-05-22T02:48:37.447Z,3.45
2023-05-22T02:51:04.789Z,3.80
2023-05-22T02:53:33.613Z,3.30
2023-05-22T02:56:01.155Z,3.15
2023-05-22T02:58:28.374Z,3.05
2023-05-22T03:00:55.668Z,3.25
2023-05-22T03:03:24.982Z,3.33
2023-05-22T03:05:58.383Z,2.78
2023-05-22T03:08:28.120Z,3.20
2023-05-22T03:10:59.628Z,3.60
2023-05-22T03:13:26.733Z,3.60
2023-05-22T03:15:53.927Z,2.92
2023-05-22T03:18:21.844Z,2.90
2023-05-22T03:20:49.434Z,3.25
2023-05-22T03:23:16.675Z,3.25
2023-05-22T03:25:43.972Z,3.83
2023-05-22T03:28:11.234Z,3.05
2023-05-22T03:30:38.549Z,3.38
2023-05-22T03:33:05.989Z,3.90
2023-05-22T03:35:33.192Z,3.80
2023-05-22T03:38:00.370Z,3.22
2023-05-22T03:40:27.549Z,3.42
2023-05-22T03:42:54.692Z,3.25
2023-05-22T03:45:21.879Z,3.63
2023-05-22T03:47:49.190Z,3.55
2023-05-22T03:50:16.431Z,3.28
2023-05-22T03:52:43.538Z,3.13
2023-05-22T03:55:10.884Z,3.70
2023-05-22T03:57:38.129Z,3.75
2023-05-22T04:00:12.525Z,3.50
2023-05-22T04:02:40.094Z,3.45
2023-05-22T04:05:09.343Z,3.78
2023-05-22T04:07:37.081Z,4.03
2023-05-22T04:10:05.184Z,3.88
2023-05-22T04:12:32.532Z,3.33
2023-05-22T04:14:59.786Z,3.25
2023-05-22T04:17:32.401Z,4.15
2023-05-22T04:20:00.311Z,3.28
2023-05-22T04:22:27.938Z,3.88
2023-05-22T04:24:55.150Z,3.85
2023-05-22T04:27:22.925Z,3.42
2023-05-22T04:29:50.456Z,3.75
2023-05-22T04:32:18.529Z,4.47
2023-05-22T04:34:47.995Z,3.80
2023-05-22T04:37:16.028Z,3.38
2023-05-22T04:39:43.427Z,4.35
2023-05-22T04:42:10.597Z,4.18
2023-05-22T04:44:38.270Z,3.97
2023-05-22T04:47:08.036Z,4.20
2023-05-22T04:49:35.548Z,3.90
2023-05-22T04:52:04.790Z,4.05
2023-05-22T04:54:32.113Z,3.80
2023-05-22T04:56:59.293Z,3.65
2023-05-22T04:59:26.611Z,3.83
2023-05-22T05:01:53.758Z,3.70
2023-05-22T05:04:20.888Z,4.10
2023-05-22T05:06:48.005Z,3.80
2023-05-22T05:09:15.202Z,4.25
2023-05-22T05:11:42.441Z,3.38
2023-05-22T05:14:09.587Z,3.70
2023-05-22T05:16:36.758Z,4.05
2023-05-22T05:19:04.122Z,3.50
2023-05-22T05:21:31.448Z,4.88
2023-05-22T05:23:58.652Z,3.90
2023-05-22T05:26:27.127Z,3.67
2023-05-22T05:28:54.643Z,3.83
2023-05-22T05:31:21.844Z,3.60
2023-05-22T05:33:49.870Z,4.68
2023-05-22T05:36:17.091Z,4.18
2023-05-22T05:38:44.251Z,4.15
2023-05-22T05:41:11.393Z,3.92
2023-05-22T05:43:38.514Z,3.95
2023-05-22T05:46:06.150Z,3.25
2023-05-22T05:48:33.621Z,4.25
2023-05-22T05:51:00.846Z,4.45
2023-05-22T05:53:28.541Z,4.30
2023-05-22T05:55:55.690Z,4.35
2023-05-22T05:58:22.914Z,3.80
2023-05-22T06:00:50.094Z,4.70
2023-05-22T06:03:17.939Z,3.70
2023-05-22T06:05:49.749Z,3.80
2023-05-22T06:08:17.017Z,4.72
2023-05-22T06:10:44.292Z,4.18
2023-05-22T06:13:11.468Z,4.00
2023-05-22T06:15:38.973Z,4.30
2023-05-22T06:18:06.261Z,4.15
2023-05-22T06:20:33.694Z,3.97
2023-05-22T06:23:00.816Z,4.07
2023-05-22T06:25:29.932Z,4.25
2023-05-22T06:27:57.082Z,3.80
2023-05-22T06:30:38.864Z,3.97
2023-05-22T06:33:10.949Z,3.95
2023-05-22T06:35:38.130Z,4.10
2023-05-22T06:38:05.288Z,3.92
2023-05-22T06:40:32.458Z,4.25
2023-05-22T06:42:59.606Z,4.07
2023-05-22T06:45:26.915Z,3.72
2023-05-22T06:47:54.925Z,4.25
2023-05-22T06:50:22.192Z,4.10
2023-05-22T06:52:49.394Z,4.35
2023-05-22T06:55:16.773Z,4.47
2023-05-22T06:57:44.111Z,4.70
2023-05-22T07:00:12.762Z,4.53
2023-05-22T07:02:40.160Z,3.97
2023-05-22T07:05:08.198Z,4.07
2023-05-22T07:07:35.926Z,3.67
2023-05-22T07:10:03.408Z,4.13
2023-05-22T07:12:30.717Z,4.25
2023-05-22T07:14:59.967Z,4.13
2023-05-22T07:17:27.435Z,4.10
2023-05-22T07:19:54.672Z,4.20
2023-05-22T07:22:46.989Z,4.40
2023-05-22T07:25:14.173Z,4.20
2023-05-22T07:27:41.308Z,4.60
2023-05-22T07:30:09.056Z,4.07
2023-05-22T07:32:36.296Z,9.75
2023-05-22T07:35:03.932Z,14.80
2023-05-22T07:37:31.733Z,10.95
2023-05-22T07:39:59.027Z,10.40
2023-05-22T07:42:27.289Z,9.68
2023-05-22T07:44:54.456Z,13.82
2023-05-22T07:47:21.642Z,8.75
2023-05-22T07:49:48.792Z,5.18
2023-05-22T07:52:15.985Z,6.28
2023-05-22T07:54:45.184Z,5.22
2023-05-22T07:57:12.998Z,4.88
2023-05-22T07:59:40.136Z,3.63
2023-05-22T08:02:09.984Z,4.60
2023-05-22T08:04:37.369Z,5.13
2023-05-22T08:07:04.838Z,4.15
2023-05-22T08:09:32.062Z,4.40
2023-05-22T08:11:59.202Z,5.63
2023-05-22T08:14:26.375Z,5.65
2023-05-22T08:16:54.947Z,4.68
2023-05-22T08:19:22.272Z,3.80
2023-05-22T08:21:49.563Z,5.28
2023-05-22T08:24:16.753Z,5.05
2023-05-22T08:26:44.012Z,7.40
2023-05-22T08:29:11.544Z,4.13
2023-05-22T08:31:38.767Z,4.13
2023-05-22T08:34:07.137Z,3.65
2023-05-22T08:36:34.482Z,3.85
2023-05-22T08:39:01.958Z,3.78
2023-05-22T08:41:29.621Z,4.22
2023-05-22T08:43:57.088Z,4.45
2023-05-22T08:46:28.239Z,4.13
2023-05-22T08:48:57.128Z,4.07
2023-05-22T08:51:28.636Z,3.65
2023-05-22T08:53:58.894Z,4.15
2023-05-22T08:56:28.571Z,4.13
2023-05-22T08:58:57.553Z,3.38
2023-05-22T09:01:24.884Z,3.67
2023-05-22T09:03:52.431Z,4.13
2023-05-22T09:06:19.604Z,3.72
2023-05-22T09:08:46.786Z,3.30
2023-05-22T09:11:13.975Z,3.20
2023-05-22T09:13:41.507Z,4.13
2023-05-22T09:16:12.721Z,4.10
2023-05-22T09:18:40.643Z,6.03
2023-05-22T09:21:21.612Z,4.63
2023-05-22T09:23:59.870Z,6.82
2023-05-22T09:26:29.110Z,4.80
2023-05-22T09:28:57.274Z,3.47
2023-05-22T09:31:24.501Z,3.70
2023-05-22T09:33:51.730Z,3.25
2023-05-22T09:36:18.868Z,3.55
2023-05-22T09:38:46.234Z,3.00
2023-05-22T09:41:13.602Z,3.33
2023-05-22T09:43:49.735Z,5.72
2023-05-22T09:46:17.322Z,3.25
2023-05-22T09:48:44.676Z,3.65
2023-05-22T09:51:12.975Z,3.33
2023-05-22T09:53:41.856Z,3.08
2023-05-22T09:56:14.695Z,2.97
2023-05-22T09:58:45.308Z,3.50
2023-05-22T10:01:14.047Z,3.47
2023-05-22T10:03:41.841Z,3.40
2023-05-22T10:06:12.192Z,3.25
2023-05-22T10:08:44.139Z,3.10
2023-05-22T10:11:11.917Z,3.90
2023-05-22T10:13:40.071Z,2.80
2023-05-22T10:16:07.853Z,3.08
2023-05-22T10:18:35.930Z,3.10
2023-05-22T10:21:03.491Z,3.25
2023-05-22T10:23:31.084Z,3.10
2023-05-22T10:25:58.358Z,3.10
2023-05-22T10:28:29.470Z,3.08
2023-05-22T10:31:02.083Z,3.38
2023-05-22T10:33:34.282Z,3.05
2023-05-22T10:36:22.244Z,2.80
2023-05-22T10:39:34.316Z,3.05
2023-05-22T10:42:01.691Z,3.35
2023-05-22T10:44:29.264Z,3.55
2023-05-22T10:46:56.446Z,3.40
2023-05-22T10:49:23.918Z,3.22
2023-05-22T10:51:57.344Z,3.65
2023-05-22T10:54:43.916Z,3.05
2023-05-22T10:57:17.158Z,3.10
2023-05-22T10:59:47.823Z,2.78
2023-05-22T11:02:22.588Z,3.03
2023-05-22T11:04:49.972Z,3.17
2023-05-22T11:07:17.293Z,3.45
2023-05-22T11:09:47.680Z,3.28
2023-05-22T11:12:24.867Z,3.13
2023-05-22T11:14:56.288Z,3.00
2023-05-22T11:17:30.721Z,3.17
2023-05-22T11:20:18.539Z,3.00
2023-05-22T11:23:05.618Z,3.72
2023-05-22T11:25:33.840Z,3.15
2023-05-22T11:28:05.690Z,2.90
2023-05-22T11:30:34.328Z,3.53
2023-05-22T11:33:02.246Z,3.22
2023-05-22T11:35:29.537Z,2.58
2023-05-22T11:37:56.902Z,3.83
2023-05-22T11:40:25.647Z,3.15
2023-05-22T11:42:53.728Z,2.92
2023-05-22T11:45:21.604Z,2.83
2023-05-22T11:47:49.088Z,2.92
2023-05-22T11:50:22.674Z,3.10
2023-05-22T11:52:53.938Z,2.78
2023-05-22T11:55:21.065Z,2.78
2023-05-22T11:57:48.426Z,3.00
2023-05-22T12:00:16.297Z,2.80
2023-05-22T12:02:47.555Z,3.08
2023-05-22T12:05:16.500Z,2.85
2023-05-22T12:07:44.003Z,3.15
2023-05-22T12:10:11.481Z,2.40
2023-05-22T12:12:39.033Z,2.63
2023-05-22T12:15:07.100Z,2.75
2023-05-22T12:17:37.572Z,2.80
2023-05-22T12:20:05.791Z,2.97
2023-05-22T12:22:33.067Z,2.63
2023-05-22T12:25:00.300Z,2.65
2023-05-22T12:27:33.193Z,3.03
2023-05-22T12:30:10.484Z,2.70
2023-05-22T12:32:40.015Z,2.85
2023-05-22T12:35:14.376Z,2.90
2023-05-22T12:37:48.309Z,3.00
2023-05-22T12:40:15.890Z,2.92
2023-05-22T12:42:44.730Z,2.55
2023-05-22T12:45:13.153Z,2.70
2023-05-22T12:47:40.442Z,3.00
2023-05-22T12:50:08.274Z,2.97
2023-05-22T12:52:35.962Z,3.10
2023-05-22T12:55:03.215Z,2.88
2023-05-22T12:57:30.497Z,2.47
2023-05-22T12:59:57.641Z,2.67
2023-05-22T13:02:24.860Z,2.95
2023-05-22T13:04:52.086Z,2.85
2023-05-22T13:07:19.270Z,2.80
2023-05-22T13:09:48.210Z,3.10
2023-05-22T13:12:15.502Z,2.80
2023-05-22T13:14:42.703Z,3.80
2023-05-22T13:17:10.569Z,2.60
2023-05-22T13:19:38.264Z,2.60
2023-05-22T13:22:07.360Z,2.88
2023-05-22T13:24:34.535Z,2.78
2023-05-22T13:27:11.099Z,3.60
2023-05-22T13:29:38.265Z,2.97
2023-05-22T13:32:05.895Z,3.45
2023-05-22T13:39:27.717Z,3.28
2023-05-22T13:41:54.994Z,2.75
2023-05-22T13:44:22.305Z,3.10
2023-05-22T13:46:49.519Z,3.17
2023-05-22T13:49:16.847Z,2.88
2023-05-22T13:51:44.377Z,3.05
2023-05-22T13:54:11.692Z,3.15
2023-05-22T13:56:38.963Z,3.17
2023-05-22T13:59:09.174Z,3.20
2023-05-22T14:01:36.748Z,3.17
2023-05-22T14:04:04.645Z,3.20
2023-05-22T14:06:31.989Z,2.90
2023-05-22T14:08:59.678Z,3.50
2023-05-22T14:11:27.433Z,3.22
2023-05-22T14:13:54.634Z,3.47
2023-05-22T14:16:22.325Z,2.97
2023-05-22T14:18:49.599Z,3.25
2023-05-22T14:21:18.661Z,3.25
2023-05-22T14:28:36.408Z,3.13
2023-05-22T14:31:03.867Z,3.80
2023-05-22T14:33:31.196Z,3.72
2023-05-22T14:35:58.431Z,3.60
2023-05-22T14:38:26.287Z,3.72
2023-05-22T14:40:53.548Z,3.65
2023-05-22T14:43:20.837Z,3.15
2023-05-22T14:45:48.264Z,3.50
2023-05-22T14:48:15.925Z,3.08
2023-05-22T14:50:43.168Z,3.05
2023-05-22T14:53:10.466Z,2.88
2023-05-22T14:55:38.079Z,2.85
2023-05-22T14:58:05.590Z,2.70
2023-05-22T15:00:32.804Z,3.20
2023-05-22T15:03:02.685Z,3.35
2023-05-22T15:05:30.170Z,3.05
2023-05-22T15:07:58.544Z,3.33
2023-05-22T15:10:26.203Z,3.28
2023-05-22T15:12:53.638Z,3.40
2023-05-22T15:15:21.140Z,3.60
2023-05-22T15:17:48.405Z,3.63
2023-05-22T15:20:15.583Z,3.42
2023-05-22T15:22:43.107Z,3.65
2023-05-22T15:25:12.329Z,3.10
2023-05-22T15:27:39.825Z,3.55
2023-05-22T15:30:09.564Z,3.53
2023-05-22T15:32:37.221Z,3.53
2023-05-22T15:35:05.740Z,3.50
2023-05-22T15:37:33.925Z,3.55
2023-05-22T15:40:01.795Z,3.50
2023-05-22T15:42:29.934Z,3.00
2023-05-22T15:44:58.872Z,3.25
2023-05-22T15:47:26.236Z,3.40
2023-05-22T15:49:53.496Z,3.17
2023-05-22T15:52:23.332Z,3.60
2023-05-22T15:54:50.667Z,3.40
2023-05-22T15:57:17.857Z,3.13
2023-05-22T15:59:47.322Z,3.20
2023-05-22T16:02:14.879Z,3.28
2023-05-22T16:04:42.238Z,3.75
2023-05-22T16:07:09.387Z,3.65
2023-05-22T16:09:36.573Z,3.60
2023-05-22T16:12:04.530Z,3.50
2023-05-22T16:14:31.902Z,3.03
2023-05-22T16:16:59.184Z,3.13
2023-05-22T16:19:33.850Z,4.25
2023-05-22T16:24:28.536Z,3.20
2023-05-22T16:26:56.661Z,3.33
2023-05-22T16:29:23.849Z,4.13
2023-05-22T16:31:52.140Z,3.08
2023-05-22T16:34:21.768Z,3.80
2023-05-22T16:36:49.005Z,3.13
2023-05-22T16:39:16.289Z,3.17
2023-05-22T16:41:43.610Z,3.47
2023-05-22T16:44:10.781Z,3.95
2023-05-22T16:46:37.968Z,8.57
2023-05-22T16:49:05.765Z,6.90
2023-05-22T16:51:33.120Z,4.22
2023-05-22T16:54:00.546Z,3.60
2023-05-22T16:56:28.174Z,3.85
2023-05-22T16:58:57.980Z,3.33
2023-05-22T17:01:27.325Z,3.40
2023-05-22T17:03:54.759Z,3.60
2023-05-22T17:06:22.722Z,3.13
2023-05-22T17:08:49.961Z,3.60
2023-05-22T17:11:17.218Z,3.92
2023-05-22T17:13:44.488Z,3.20
2023-05-22T17:16:11.718Z,2.97
2023-05-22T17:18:38.868Z,3.53
2023-05-22T17:21:09.077Z,3.45
2023-05-22T17:23:37.261Z,3.45
2023-05-22T17:26:04.743Z,3.33
2023-05-22T17:28:32.028Z,3.38
2023-05-22T17:30:59.398Z,3.65
2023-05-22T17:33:26.694Z,3.88
2023-05-22T17:35:53.961Z,3.25
2023-05-22T17:38:21.971Z,3.15
2023-05-22T17:40:49.516Z,3.15
2023-05-22T17:43:19.016Z,3.00
2023-05-22T17:45:49.887Z,4.28
2023-05-22T17:48:23.285Z,3.63
2023-05-22T17:50:50.768Z,2.90
2023-05-22T17:53:19.630Z,2.50
2023-05-22T17:55:48.337Z,3.22
2023-05-22T17:58:16.651Z,3.25
2023-05-22T18:00:43.883Z,2.80
2023-05-22T18:03:12.194Z,3.55
2023-05-22T18:05:39.567Z,3.88
2023-05-22T18:14:50.509Z,3.00
2023-05-22T18:17:17.809Z,3.30
2023-05-22T18:19:45.104Z,3.20
2023-05-22T18:22:12.660Z,3.10
2023-05-22T18:24:40.665Z,3.63
2023-05-22T18:27:07.915Z,3.22
2023-05-22T18:29:35.389Z,3.08
2023-05-22T18:32:03.024Z,3.30
2023-05-22T18:34:31.425Z,3.13
2023-05-22T18:36:59.604Z,3.20
2023-05-22T18:39:26.894Z,2.90
2023-05-22T18:41:54.154Z,3.35
2023-05-22T18:44:23.211Z,3.22
2023-05-22T18:46:50.623Z,3.60
2023-05-22T18:49:17.816Z,3.20
2023-05-22T18:51:45.097Z,3.35
2023-05-22T18:54:12.283Z,3.13
2023-05-22T18:56:39.522Z,3.42
2023-05-22T18:59:06.903Z,3.90
2023-05-22T19:01:34.213Z,3.40
2023-05-22T19:04:01.455Z,3.42
2023-05-22T19:06:28.995Z,3.38
2023-05-22T19:08:56.183Z,3.58
2023-05-22T19:11:23.366Z,2.80
2023-05-22T19:13:50.789Z,3.45
2023-05-22T19:16:18.112Z,3.72
2023-05-22T19:18:45.447Z,3.80
2023-05-22T19:21:12.880Z,3.60
2023-05-22T19:23:40.187Z,3.53
2023-05-22T19:26:07.414Z,3.67
2023-05-22T19:28:34.641Z,3.25
2023-05-22T19:31:03.091Z,3.15
2023-05-22T19:33:33.719Z,3.47
2023-05-22T19:36:02.291Z,3.60
2023-05-22T19:38:31.023Z,3.40
2023-05-22T19:40:58.288Z,3.25
2023-05-22T19:43:25.693Z,2.95
2023-05-22T19:45:53.474Z,3.17
2023-05-22T19:48:21.377Z,3.25
2023-05-22T19:50:48.537Z,3.03
2023-05-22T19:53:15.950Z,3.22
2023-05-22T19:55:43.159Z,3.40
2023-05-22T19:58:10.429Z,3.53
2023-05-22T20:00:38.198Z,3.30
2023-05-22T20:03:05.857Z,2.95
2023-05-22T20:05:33.274Z,2.97
2023-05-22T20:08:00.650Z,3.35
2023-05-22T20:10:27.905Z,3.10
2023-05-22T20:12:55.235Z,3.35
2023-05-22T20:15:24.004Z,3.17
2023-05-22T20:17:52.928Z,3.33
2023-05-22T20:20:20.755Z,2.97
2023-05-22T20:22:48.204Z,3.58
2023-05-22T20:25:15.518Z,3.13
2023-05-22T20:27:42.853Z,2.72
2023-05-22T20:30:11.483Z,3.58
2023-05-22T20:32:46.661Z,3.75
2023-05-22T20:37:41.586Z,3.15
2023-05-22T20:40:12.959Z,3.33
2023-05-22T20:42:42.496Z,3.53
2023-05-22T20:45:14.586Z,3.78
2023-05-22T20:47:42.569Z,2.90
2023-05-22T20:50:10.033Z,3.17
2023-05-22T20:52:37.357Z,3.00
2023-05-22T20:55:05.206Z,3.15
2023-05-22T20:57:32.473Z,3.30
2023-05-22T20:59:59.742Z,3.40
2023-05-22T21:02:26.961Z,3.30
2023-05-22T21:04:54.185Z,2.92
2023-05-22T21:07:21.485Z,3.42
2023-05-22T21:09:48.657Z,3.08
2023-05-22T21:12:15.830Z,3.60
2023-05-22T21:14:44.075Z,2.75
2023-05-22T21:17:12.128Z,3.33
2023-05-22T21:19:39.529Z,3.20
2023-05-22T21:22:06.737Z,3.30
2023-05-22T21:24:33.896Z,3.20
2023-05-22T21:27:01.096Z,3.10
2023-05-22T21:29:28.297Z,3.42
2023-05-22T21:31:55.502Z,3.42
2023-05-22T21:34:22.977Z,3.47
2023-05-22T21:36:50.727Z,3.15
2023-05-22T21:39:17.920Z,3.38
2023-05-22T21:41:45.631Z,3.83
2023-05-22T21:44:12.953Z,4.00
2023-05-22T21:46:40.387Z,3.38
2023-05-22T21:49:09.524Z,3.35
2023-05-22T21:51:37.004Z,3.15
2023-05-22T21:54:04.363Z,3.40
2023-05-22T21:56:31.610Z,3.33
2023-05-22T21:58:59.184Z,3.83
2023-05-22T22:01:26.387Z,3.30
2023-05-22T22:03:53.810Z,3.28
2023-05-22T22:06:21.015Z,3.65
2023-05-22T22:08:48.188Z,3.42
2023-05-22T22:11:15.412Z,3.63
2023-05-22T22:13:42.633Z,3.33
2023-05-22T22:16:09.984Z,3.53
2023-05-22T22:18:37.231Z,3.00
2023-05-22T22:21:04.663Z,3.42
2023-05-22T22:23:31.835Z,3.83
2023-05-22T22:25:59.060Z,3.40
2023-05-22T22:28:26.227Z,3.45
2023-05-22T22:30:55.194Z,2.60
2023-05-22T22:33:22.890Z,3.38
2023-05-22T22:35:51.324Z,3.55
2023-05-22T22:38:18.516Z,3.50
2023-05-22T22:40:45.740Z,3.20
2023-05-22T22:43:12.990Z,2.88
2023-05-22T22:45:40.412Z,3.47
2023-05-22T22:48:07.954Z,3.38
2023-05-22T22:50:35.173Z,3.83
2023-05-22T22:53:02.317Z,2.95
2023-05-22T22:55:29.628Z,3.53
2023-05-22T22:57:56.972Z,3.20
2023-05-22T23:00:24.608Z,3.15
2023-05-22T23:02:51.855Z,3.72
2023-05-22T23:05:20.546Z,3.05
2023-05-22T23:07:48.298Z,3.00
2023-05-22T23:10:15.648Z,3.78
2023-05-22T23:12:42.934Z,3.13
2023-05-22T23:15:11.342Z,2.92
2023-05-22T23:17:38.816Z,3.38
2023-05-22T23:20:06.934Z,3.58
2023-05-22T23:22:34.316Z,3.67
2023-05-22T23:25:01.449Z,3.50
2023-05-22T23:27:28.753Z,3.25
2023-05-22T23:29:55.969Z,3.08
2023-05-22T23:32:23.128Z,3.53
2023-05-22T23:34:50.436Z,3.55
2023-05-22T23:37:17.581Z,3.50
2023-05-22T23:39:44.773Z,3.53
2023-05-22T23:42:12.104Z,3.35
2023-05-22T23:44:39.581Z,3.45
2023-05-22T23:47:07.185Z,3.45
2023-05-22T23:49:34.400Z,3.50
2023-05-22T23:52:01.637Z,3.25
2023-05-22T23:54:28.766Z,3.28
2023-05-22T23:56:56.063Z,3.70
2023-05-22T23:59:23.188Z,3.28
